KWST

Details ICAO KWST (WST)
Name Westerly State
Region United States
Timezone America/New_York (UTC-4.0)
Plans Departing 8
Arriving 6
Stats Elevation 81 ft / 25 m (AMSL)
Location 41.349679° -71.803368°
Runways 2
Magnetic Variation 14.062° W
Sunrise 2018-05-27 09:20:24 UTC / 2018-05-27 05:20:24 Local
Sunset 2018-05-28 00:11:16 UTC / 2018-05-27 20:11:16 Local
Advertisement - Login to hide

Runways

ID Width Length Bearing (true) Bearing (mag) Surface Threshold Offset Overrun Length
07 100 ft / 30 m 4,005 ft / 1,221 m 53.12° 67.18° Asphalt 0 ft / 0 m 0 ft / 0 m
14 75 ft / 23 m 3,957 ft / 1,206 m 130.20° 144.26° Asphalt 0 ft / 0 m 0 ft / 0 m
25 100 ft / 30 m 4,005 ft / 1,221 m 233.13° 247.19° Asphalt 0 ft / 0 m 0 ft / 0 m
32 75 ft / 23 m 3,957 ft / 1,206 m 310.21° 324.27° Asphalt 751 ft / 229 m 0 ft / 0 m

Map

Weather


0- 5 10 15 20 25 30 35+ Temperature / ° C

Clouds and Precipitation
Forecast for 2018-05-27 06:00 UTC. Updated 7 minutes ago

Ground ~20,000 ft ~40,000 ft Winds

METAR

KWST 270453Z AUTO 03007G17KT 10SM CLR 22/16 A2993 RMK AO2 SLP134 T02170156 402670178

TAF

Not found

Frequencies

Recorded 132.37 MHz ASOS
Approach 119.45 MHz PROVIDENCE APP/DEP
Unicom 123.00 MHz CTAF/UNICOM
Warning: Do not use this data for real-world aviation or navigation. No guarantee of current accuracy is given.